createdAt,value
2019-02-22T00:02:13.458Z,8.94
2019-02-22T00:07:15.098Z,8.90
2019-02-22T00:12:16.769Z,8.87
2019-02-22T00:17:18.320Z,8.86
2019-02-22T00:22:19.931Z,8.81
2019-02-22T00:27:22.109Z,8.76
2019-02-22T00:32:23.944Z,8.72
2019-02-22T00:37:25.645Z,8.69
2019-02-22T00:42:27.888Z,8.65
2019-02-22T00:47:29.421Z,8.63
2019-02-22T00:52:31.999Z,8.64
2019-02-22T00:57:33.625Z,8.63
2019-02-22T01:02:35.582Z,8.61
2019-02-22T01:07:37.519Z,8.59
2019-02-22T01:12:39.119Z,8.56
2019-02-22T01:17:41.123Z,8.54
2019-02-22T01:22:42.681Z,8.54
2019-02-22T01:27:44.231Z,8.52
2019-02-22T01:32:45.785Z,8.53
2019-02-22T01:37:47.692Z,8.51
2019-02-22T01:42:49.309Z,8.42
2019-02-22T01:47:50.899Z,8.35
2019-02-22T01:52:52.459Z,8.34
2019-02-22T01:57:54.542Z,8.27
2019-02-22T02:02:56.088Z,8.27
2019-02-22T02:07:57.718Z,8.29
2019-02-22T02:12:59.341Z,8.29
2019-02-22T02:18:00.827Z,8.28
2019-02-22T02:23:02.403Z,8.29
2019-02-22T02:28:04.009Z,8.24
2019-02-22T02:33:05.643Z,8.26
2019-02-22T02:38:07.295Z,8.31
2019-02-22T02:43:09.318Z,8.29
2019-02-22T02:48:10.882Z,8.29
2019-02-22T02:53:12.512Z,8.29
2019-02-22T02:58:14.040Z,8.30
2019-02-22T03:03:16.092Z,8.31
2019-02-22T03:08:17.631Z,8.33
2019-02-22T03:13:19.285Z,8.30
2019-02-22T03:18:20.878Z,8.32
2019-02-22T03:23:22.482Z,8.31
2019-02-22T03:28:24.082Z,8.35
2019-02-22T03:33:25.819Z,8.34
2019-02-22T03:38:27.335Z,8.30
2019-02-22T03:43:28.974Z,8.31
2019-02-22T03:48:30.528Z,8.33
2019-02-22T03:53:32.143Z,8.29
2019-02-22T03:58:33.743Z,8.27
2019-02-22T04:03:35.371Z,8.28
2019-02-22T04:08:36.865Z,8.30
2019-02-22T04:13:38.913Z,8.29
2019-02-22T04:18:40.450Z,8.27
2019-02-22T04:23:42.423Z,8.22
2019-02-22T04:28:44.010Z,8.22
2019-02-22T04:33:45.578Z,8.21
2019-02-22T04:38:47.189Z,8.18
2019-02-22T04:43:48.793Z,8.18
2019-02-22T04:48:50.727Z,8.13
2019-02-22T04:53:52.650Z,8.16
2019-02-22T04:58:54.192Z,8.17
2019-02-22T05:03:56.266Z,8.20
2019-02-22T05:08:57.791Z,8.21
2019-02-22T05:13:59.354Z,8.18
2019-02-22T05:19:00.935Z,8.17
2019-02-22T05:24:02.494Z,8.09
2019-02-22T05:29:04.051Z,8.05
2019-02-22T05:34:05.684Z,8.05
2019-02-22T05:39:18.557Z,8.05
2019-02-22T05:44:10.958Z,8.01
2019-02-22T05:49:12.716Z,7.99
2019-02-22T05:54:14.500Z,8.00
2019-02-22T05:59:16.063Z,8.04
2019-02-22T06:04:17.665Z,8.03
2019-02-22T06:09:19.779Z,8.05
2019-02-22T06:14:21.360Z,8.07
2019-02-22T06:19:22.940Z,8.13
2019-02-22T06:24:24.750Z,8.18
2019-02-22T06:29:26.380Z,8.19
2019-02-22T06:34:27.960Z,8.19
2019-02-22T06:39:29.686Z,8.21
2019-02-22T06:44:31.235Z,8.21
2019-02-22T06:49:32.894Z,8.20
2019-02-22T06:54:35.230Z,8.21
2019-02-22T06:59:37.087Z,8.23
2019-02-22T07:04:38.690Z,8.25
2019-02-22T07:09:40.382Z,8.16
2019-02-22T07:14:41.937Z,8.19
2019-02-22T07:19:43.582Z,8.19
2019-02-22T07:24:45.099Z,8.23
2019-02-22T07:29:46.707Z,8.22
2019-02-22T07:34:48.671Z,8.24
2019-02-22T07:39:50.223Z,8.23
2019-02-22T07:44:51.816Z,8.32
2019-02-22T07:49:53.474Z,8.36
2019-02-22T07:54:55.024Z,8.52
2019-02-22T07:59:56.579Z,8.70
2019-02-22T08:04:58.115Z,8.84
2019-02-22T08:09:59.680Z,8.86
2019-02-22T08:15:03.111Z,8.95
2019-02-22T08:20:04.883Z,9.09
2019-02-22T08:25:06.976Z,9.11
2019-02-22T08:30:08.858Z,9.14
2019-02-22T08:35:10.447Z,9.25
2019-02-22T08:40:12.395Z,9.45
2019-02-22T08:45:13.983Z,9.64
2019-02-22T08:50:15.524Z,9.66
2019-02-22T08:55:17.106Z,9.72
2019-02-22T09:00:18.622Z,9.89
2019-02-22T09:05:20.257Z,10.05
2019-02-22T09:10:22.265Z,10.11
2019-02-22T09:15:23.838Z,10.36
2019-02-22T09:20:25.449Z,10.44
2019-02-22T09:25:26.937Z,10.39
2019-02-22T09:30:28.490Z,10.40
2019-02-22T09:35:30.051Z,10.79
2019-02-22T09:40:32.133Z,11.40
2019-02-22T09:45:33.705Z,11.58
2019-02-22T09:50:35.263Z,11.48
2019-02-22T09:55:36.854Z,11.27
2019-02-22T10:00:38.399Z,11.15
2019-02-22T10:05:39.969Z,11.26
2019-02-22T10:10:41.583Z,11.46
2019-02-22T10:15:43.406Z,11.65
2019-02-22T10:20:45.049Z,11.70
2019-02-22T10:25:46.587Z,11.75
2019-02-22T10:30:48.145Z,12.13
2019-02-22T10:35:49.703Z,12.54
2019-02-22T10:40:51.301Z,12.54
2019-02-22T10:45:52.854Z,12.39
2019-02-22T10:50:54.413Z,13.01
2019-02-22T10:55:56.307Z,13.48
2019-02-22T11:00:57.930Z,13.50
2019-02-22T11:05:59.491Z,13.58
2019-02-22T11:11:01.204Z,13.38
2019-02-22T11:16:02.745Z,13.40
2019-02-22T11:21:04.276Z,13.57
2019-02-22T11:26:06.303Z,13.43
2019-02-22T11:31:07.839Z,13.92
2019-02-22T11:36:09.681Z,13.96
2019-02-22T11:41:11.250Z,14.00
2019-02-22T11:46:12.861Z,14.33
2019-02-22T11:51:14.455Z,14.88
2019-02-22T11:56:16.009Z,14.80
2019-02-22T12:01:17.838Z,14.83
2019-02-22T12:06:19.362Z,15.15
2019-02-22T12:11:20.934Z,15.49
2019-02-22T12:16:22.926Z,15.45
2019-02-22T12:21:24.498Z,15.59
2019-02-22T12:26:26.048Z,15.75
2019-02-22T12:31:27.625Z,15.79
2019-02-22T12:36:29.535Z,15.78
2019-02-22T12:41:31.146Z,15.80
2019-02-22T12:46:32.676Z,15.67
2019-02-22T12:51:34.265Z,15.43
2019-02-22T13:01:39.449Z,15.37
2019-02-22T13:06:41.048Z,15.34
2019-02-22T13:11:42.657Z,15.07
2019-02-22T13:16:44.204Z,14.87
2019-02-22T13:21:45.843Z,14.71
2019-02-22T13:26:47.457Z,14.63
2019-02-22T13:31:49.030Z,14.64
2019-02-22T13:36:50.658Z,14.61
2019-02-22T13:41:52.207Z,14.49
2019-02-22T13:46:55.774Z,14.44
2019-02-22T13:51:57.327Z,14.42
2019-02-22T13:56:58.869Z,14.25
2019-02-22T14:02:01.132Z,14.08
2019-02-22T14:07:03.174Z,13.91
2019-02-22T14:12:04.738Z,13.91
2019-02-22T14:17:06.285Z,13.80
2019-02-22T14:22:07.809Z,13.78
2019-02-22T14:27:09.931Z,13.76
2019-02-22T14:32:11.556Z,13.76
2019-02-22T14:37:13.104Z,13.77
2019-02-22T14:42:14.676Z,13.73
2019-02-22T14:47:16.229Z,13.81
2019-02-22T14:52:17.838Z,13.81
2019-02-22T14:57:19.424Z,13.76
2019-02-22T15:02:20.999Z,13.72
2019-02-22T15:07:22.644Z,13.68
2019-02-22T15:12:24.852Z,13.50
2019-02-22T15:17:27.398Z,13.37
2019-02-22T15:22:32.227Z,13.36
2019-02-22T15:27:36.259Z,13.37
2019-02-22T15:32:37.371Z,13.32
2019-02-22T15:37:39.013Z,13.34
2019-02-22T15:42:40.814Z,13.29
2019-02-22T15:47:42.427Z,13.30
2019-02-22T15:52:44.545Z,13.26
2019-02-22T15:57:46.273Z,13.17
2019-02-22T16:02:48.381Z,13.05
2019-02-22T16:07:50.345Z,13.01
2019-02-22T16:12:51.901Z,12.90
2019-02-22T16:17:53.640Z,12.78
2019-02-22T16:22:55.266Z,12.74
2019-02-22T16:27:56.804Z,12.64
2019-02-22T16:32:58.413Z,12.51
2019-02-22T16:38:00.206Z,12.47
2019-02-22T16:43:02.129Z,12.44
2019-02-22T16:48:04.265Z,12.26
2019-02-22T16:53:05.832Z,12.09
2019-02-22T16:58:07.783Z,12.10
2019-02-22T17:03:09.469Z,12.15
2019-02-22T17:08:11.032Z,12.16
2019-02-22T17:13:12.592Z,12.05
2019-02-22T17:18:14.595Z,11.92
2019-02-22T17:23:16.170Z,11.75
2019-02-22T17:28:18.078Z,12.01
2019-02-22T17:33:19.665Z,11.56
2019-02-22T17:38:21.266Z,11.45
2019-02-22T17:43:23.707Z,11.44
2019-02-22T17:48:25.259Z,11.52
2019-02-22T17:53:27.014Z,11.46
2019-02-22T17:58:28.761Z,11.48
2019-02-22T18:03:30.430Z,11.39
2019-02-22T18:08:32.415Z,11.40
2019-02-22T18:13:34.728Z,11.45
2019-02-22T18:18:36.771Z,11.52
2019-02-22T18:23:38.410Z,11.52
2019-02-22T18:28:40.043Z,11.53
2019-02-22T18:33:41.978Z,11.51
2019-02-22T18:38:43.644Z,11.50
2019-02-22T18:43:45.560Z,11.49
2019-02-22T18:48:47.221Z,11.51
2019-02-22T18:53:49.357Z,11.49
2019-02-22T18:58:51.361Z,11.42
2019-02-22T19:03:53.011Z,11.29
2019-02-22T19:08:54.713Z,11.04
2019-02-22T19:13:56.304Z,10.77
2019-02-22T19:18:57.892Z,10.55
2019-02-22T19:23:59.487Z,10.31
2019-02-22T19:29:01.204Z,10.09
2019-02-22T19:34:03.162Z,9.97
2019-02-22T19:39:05.165Z,9.79
2019-02-22T19:44:06.816Z,9.70
2019-02-22T19:49:08.500Z,9.57
2019-02-22T19:54:10.065Z,9.47
2019-02-22T19:59:12.723Z,9.38
2019-02-22T20:04:14.660Z,9.26
2019-02-22T20:09:16.502Z,9.19
2019-02-22T20:14:18.464Z,9.05
2019-02-22T20:19:20.618Z,8.96
2019-02-22T20:24:23.445Z,8.91
2019-02-22T20:29:25.340Z,8.86
2019-02-22T20:34:29.035Z,8.78
2019-02-22T20:39:30.760Z,8.65
2019-02-22T20:44:32.405Z,8.57
2019-02-22T20:49:34.097Z,8.56
2019-02-22T20:54:35.806Z,8.51
2019-02-22T20:59:37.488Z,8.45
2019-02-22T21:04:39.114Z,8.38
2019-02-22T21:09:41.112Z,8.32
2019-02-22T21:14:43.055Z,8.27
2019-02-22T21:19:44.645Z,8.21
2019-02-22T21:24:46.630Z,8.15
2019-02-22T21:29:48.197Z,8.06
2019-02-22T21:34:49.775Z,7.98
2019-02-22T21:39:51.429Z,7.93
2019-02-22T21:44:53.049Z,7.86
2019-02-22T21:49:54.823Z,7.79
2019-02-22T21:54:56.439Z,7.71
2019-02-22T21:59:57.987Z,7.68
2019-02-22T22:04:59.566Z,7.63
2019-02-22T22:10:01.584Z,7.58
2019-02-22T22:15:03.270Z,7.52
2019-02-22T22:20:04.839Z,7.45
2019-02-22T22:25:07.256Z,7.36
2019-02-22T22:30:09.620Z,7.34
2019-02-22T22:35:11.317Z,7.31
2019-02-22T22:40:12.889Z,7.24
2019-02-22T22:45:14.587Z,7.19
2019-02-22T22:50:16.123Z,7.12
2019-02-22T22:55:17.829Z,7.06
2019-02-22T23:00:35.672Z,7.00
2019-02-22T23:05:37.358Z,6.93
2019-02-22T23:10:38.882Z,6.86
2019-02-22T23:15:40.442Z,6.80
2019-02-22T23:20:42.330Z,6.77
2019-02-22T23:25:43.875Z,6.74
2019-02-22T23:30:45.477Z,6.67
2019-02-22T23:35:47.023Z,6.60
2019-02-22T23:40:48.591Z,6.55
2019-02-22T23:45:50.156Z,6.48
2019-02-22T23:50:51.709Z,6.43
2019-02-22T23:55:53.615Z,6.38
